Station Historical Data
Daily Summary for October 23, 2017 Units:  Metric    English   Both
« Previous Day
Next Day »
Daily Weekly Monthly Yearly Custom
  High: Low: Average:
Temperature: 21.7 °C 14.9 °C 18.7 °C
Dew Point: 14.9 °C 10.8 °C 12.8 °C
Humidity: 84% 61% 69%
Wind Speed: 20.9km/h 0km/h 5.3km/h
Wind Gust: 35.4km/h - -
Wind- - SSE
Pressure: 1019.5 hPa 1002.9 hPa -
Precipitation: 0 mm    
Historical Graphs
 
 
Tabular Data for October 23, 2017
Time Temperature Dew Point Pressure Wind Wind Speed Wind Gust Humidity Rainfall Rate (Hourly)
00:04 17.1 °C 11.6 °C 1019.5 hPa Calm   4.8 km/h 70% 0 mm
00:09 17.1 °C 11.8 °C 1019.5 hPa Calm   4.8 km/h 71% 0 mm
00:14 17.2 °C 11.9 °C 1019.5 hPa Calm   4.8 km/h 71% 0 mm
00:19 17.2 °C 11.9 °C 1019.5 hPa Calm   3.2 km/h 71% 0 mm
00:24 17.3 °C 11.8 °C 1019.5 hPa Calm   4.8 km/h 70% 0 mm
00:29 17.4 °C 11.9 °C 1019.5 hPa SSW 1.6 km/h 4.8 km/h 70% 0 mm
00:34 17.5 °C 11.9 °C 1019.2 hPa Calm   6.4 km/h 70% 0 mm
00:39 17.5 °C 11.9 °C 1019.2 hPa Calm   6.4 km/h 70% 0 mm
00:44 17.3 °C 11.8 °C 1019.2 hPa Calm     70% 0 mm
00:49 17.3 °C 11.8 °C 1019.2 hPa Calm     70% 0 mm
00:54 17.2 °C 11.9 °C 1019.2 hPa Calm   6.4 km/h 71% 0 mm
00:59 17.3 °C 11.8 °C 1019.2 hPa Calm     70% 0 mm
01:04 17.4 °C 11.9 °C 1019.2 hPa SW 1.6 km/h 9.7 km/h 70% 0 mm
01:09 17.6 °C 12.1 °C 1019.2 hPa SSE 4.8 km/h 4.8 km/h 70% 0 mm
01:14 17.7 °C 11.9 °C 1019.2 hPa SSW 1.6 km/h 9.7 km/h 69% 0 mm
01:19 17.8 °C 12.1 °C 1019.2 hPa South 1.6 km/h 11.3 km/h 69% 0 mm
01:24 17.9 °C 12.1 °C 1019.2 hPa South 3.2 km/h 11.3 km/h 69% 0 mm
01:29 17.9 °C 12.1 °C 1019.2 hPa SSE 1.6 km/h 9.7 km/h 69% 0 mm
01:34 18.1 °C 12.3 °C 1018.8 hPa SSE 3.2 km/h 9.7 km/h 69% 0 mm
01:39 18.1 °C 12.1 °C 1018.8 hPa Calm   4.8 km/h 68% 0 mm
01:44 18 °C 12 °C 1018.8 hPa SSE 3.2 km/h 6.4 km/h 68% 0 mm
01:49 18.1 °C 12.3 °C 1018.8 hPa SSE 4.8 km/h 11.3 km/h 69% 0 mm
01:54 18.1 °C 12.3 °C 1018.8 hPa South 3.2 km/h 11.3 km/h 69% 0 mm
01:59 18.1 °C 12.3 °C 1018.5 hPa South 3.2 km/h 11.3 km/h 69% 0 mm
02:04 18 °C 12.2 °C 1018.8 hPa South 3.2 km/h 11.3 km/h 69% 0 mm
02:09 17.9 °C 12.2 °C 1018.8 hPa Calm   12.9 km/h 69% 0 mm
02:14 17.9 °C 12.1 °C 1018.8 hPa Calm   6.4 km/h 69% 0 mm
02:19 17.8 °C 12 °C 1018.8 hPa Calm   11.3 km/h 69% 0 mm
02:24 17.7 °C 11.9 °C 1018.8 hPa SW 4.8 km/h 8 km/h 69% 0 mm
02:29 17.6 °C 12.1 °C 1018.8 hPa SSW 1.6 km/h 9.7 km/h 70% 0 mm
02:34 17.6 °C 12 °C 1018.8 hPa SSW 3.2 km/h 9.7 km/h 70% 0 mm
02:39 17.4 °C 11.8 °C 1018.8 hPa South 1.6 km/h 8 km/h 70% 0 mm
02:44 17.4 °C 11.8 °C 1018.8 hPa SSE 8 km/h 11.3 km/h 70% 0 mm
02:49 17.4 °C 11.9 °C 1018.8 hPa Calm   8 km/h 70% 0 mm
02:54 17.3 °C 11.8 °C 1018.8 hPa SSE 3.2 km/h 11.3 km/h 70% 0 mm
02:59 17.3 °C 11.8 °C 1018.8 hPa Calm   9.7 km/h 70% 0 mm
03:04 17.3 °C 12 °C 1018.8 hPa SSW 3.2 km/h 9.7 km/h 71% 0 mm
03:09 17.3 °C 11.9 °C 1018.8 hPa SSW 1.6 km/h 6.4 km/h 71% 0 mm
03:14 17.3 °C 11.9 °C 1018.8 hPa SSW 1.6 km/h 11.3 km/h 71% 0 mm
03:19 17.3 °C 11.9 °C 1018.8 hPa Calm   4.8 km/h 71% 0 mm
03:24 17.3 °C 11.9 °C 1018.8 hPa Calm   8 km/h 71% 0 mm
03:29 17.2 °C 11.9 °C 1018.5 hPa SSW 3.2 km/h 3.2 km/h 71% 0 mm
03:34 17.2 °C 12.1 °C 1018.5 hPa SSW 4.8 km/h 6.4 km/h 72% 0 mm
03:39 17.1 °C 11.8 °C 1018.8 hPa SSW 1.6 km/h 8 km/h 71% 0 mm
03:44 17.1 °C 11.8 °C 1018.5 hPa Calm   4.8 km/h 71% 0 mm
03:49 17 °C 11.9 °C 1018.5 hPa Calm   8 km/h 72% 0 mm
03:54 16.9 °C 11.8 °C 1018.5 hPa SSW 1.6 km/h 6.4 km/h 72% 0 mm
03:59 16.8 °C 11.8 °C 1018.5 hPa Calm   3.2 km/h 72% 0 mm
04:04 16.7 °C 11.7 °C 1018.5 hPa Calm     72% 0 mm
04:09 16.6 °C 11.7 °C 1018.5 hPa Calm     73% 0 mm
04:14 16.6 °C 11.7 °C 1018.5 hPa Calm   4.8 km/h 73% 0 mm
04:19 16.6 °C 11.7 °C 1018.5 hPa Calm   4.8 km/h 73% 0 mm
04:24 16.7 °C 11.8 °C 1018.5 hPa Calm   8 km/h 73% 0 mm
04:29 16.7 °C 11.8 °C 1018.5 hPa Calm   8 km/h 73% 0 mm
04:34 16.9 °C 11.8 °C 1018.2 hPa Calm   4.8 km/h 72% 0 mm
04:39 16.9 °C 11.8 °C 1018.2 hPa Calm   3.2 km/h 72% 0 mm
04:44 16.7 °C 11.8 °C 1018.2 hPa South 6.4 km/h 6.4 km/h 73% 0 mm
04:49 16.7 °C 11.8 °C 1018.2 hPa Calm   9.7 km/h 73% 0 mm
04:54 16.7 °C 11.7 °C 1018.2 hPa Calm     72% 0 mm
04:59 16.6 °C 11.7 °C 1018.2 hPa Calm     73% 0 mm
05:04 16.4 °C 11.6 °C 1018.2 hPa Calm     73% 0 mm
05:09 16.2 °C 11.6 °C 1018.2 hPa Calm     74% 0 mm
05:14 16.1 °C 11.4 °C 1018.2 hPa Calm   3.2 km/h 74% 0 mm
05:19 16.1 °C 11.4 °C 1018.5 hPa Calm   6.4 km/h 74% 0 mm
05:24 16 °C 11.4 °C 1018.5 hPa Calm   6.4 km/h 74% 0 mm
05:29 15.9 °C 11.3 °C 1018.2 hPa Calm     74% 0 mm
05:34 15.9 °C 11.5 °C 1018.2 hPa Calm   3.2 km/h 75% 0 mm
05:39 15.9 °C 11.3 °C 1018.2 hPa Calm   3.2 km/h 74% 0 mm
05:44 15.9 °C 11.3 °C 1018.2 hPa Calm   3.2 km/h 74% 0 mm
05:49 16 °C 11.4 °C 1018.2 hPa Calm   6.4 km/h 74% 0 mm
05:54 16 °C 11.4 °C 1018.2 hPa Calm   1.6 km/h 74% 0 mm
05:59 15.8 °C 11.2 °C 1017.8 hPa Calm     74% 0 mm
06:04 15.7 °C 11.2 °C 1018.2 hPa Calm     75% 0 mm
06:09 15.3 °C 10.9 °C 1017.8 hPa Calm     75% 0 mm
06:14 15.1 °C 10.9 °C 1017.8 hPa Calm     76% 0 mm
06:19 15.1 °C 10.8 °C 1017.8 hPa Calm     76% 0 mm
06:24 14.9 °C 10.9 °C 1017.8 hPa Calm     77% 0 mm
06:29 14.9 °C 10.9 °C 1017.8 hPa Calm     77% 0 mm
06:34 14.9 °C 10.9 °C 1017.8 hPa Calm     77% 0 mm
06:39 14.9 °C 10.9 °C 1017.8 hPa Calm   8 km/h 77% 0 mm
06:44 15.3 °C 11.1 °C 1017.8 hPa SSE 1.6 km/h 8 km/h 76% 0 mm
06:49 15.7 °C 11.5 °C 1017.8 hPa SSE 1.6 km/h 8 km/h 76% 0 mm
06:54 16.1 °C 11.7 °C 1017.5 hPa SSE 4.8 km/h 11.3 km/h 75% 0 mm
06:59 16.3 °C 11.6 °C 1017.5 hPa SSE 4.8 km/h 11.3 km/h 74% 0 mm
07:04 16.3 °C 11.7 °C 1017.5 hPa SSE 3.2 km/h 8 km/h 74% 0 mm
07:09 16.3 °C 11.7 °C 1017.5 hPa ESE 8 km/h 8 km/h 74% 0 mm
07:14 16.4 °C 11.8 °C 1017.5 hPa South 1.6 km/h 14.5 km/h 74% 0 mm
07:19 16.4 °C 11.8 °C 1017.2 hPa SE 3.2 km/h 9.7 km/h 74% 0 mm
07:24 16.5 °C 11.8 °C 1017.2 hPa Calm   4.8 km/h 74% 0 mm
07:29 16.5 °C 11.8 °C 1017.2 hPa SSE 9.7 km/h 12.9 km/h 74% 0 mm
07:34 16.6 °C 11.9 °C 1017.2 hPa SSE 4.8 km/h 12.9 km/h 74% 0 mm
07:39 16.7 °C 11.8 °C 1016.8 hPa SSE 6.4 km/h 14.5 km/h 73% 0 mm
07:44 16.8 °C 11.9 °C 1017.2 hPa SSE 4.8 km/h 14.5 km/h 73% 0 mm
07:49 16.8 °C 11.9 °C 1017.2 hPa SSE 4.8 km/h 14.5 km/h 73% 0 mm
07:54 16.9 °C 12 °C 1017.2 hPa SSE 4.8 km/h 12.9 km/h 73% 0 mm
07:59 16.9 °C 12 °C 1016.8 hPa South 6.4 km/h 12.9 km/h 73% 0 mm
08:04 16.9 °C 12.1 °C 1016.8 hPa South 3.2 km/h 12.9 km/h 73% 0 mm
08:09 17 °C 11.9 °C 1016.8 hPa SSE 4.8 km/h 16.1 km/h 72% 0 mm
08:14 17 °C 11.9 °C 1016.8 hPa SSE 6.4 km/h 16.1 km/h 72% 0 mm
08:19 17.1 °C 11.9 °C 1016.5 hPa SSE 1.6 km/h 14.5 km/h 72% 0 mm
08:24 17.1 °C 11.9 °C 1016.8 hPa SE 4.8 km/h 12.9 km/h 72% 0 mm
08:29 17.1 °C 11.9 °C 1016.8 hPa SSE 3.2 km/h 14.5 km/h 72% 0 mm
08:39 17.1 °C 11.9 °C 1017.2 hPa SSE 4.8 km/h 19.3 km/h 72% 0 mm
08:44 17.1 °C 11.9 °C 1017.2 hPa SSE 4.8 km/h 16.1 km/h 72% 0 mm
08:49 17.1 °C 12 °C 1016.8 hPa SSE 4.8 km/h 16.1 km/h 72% 0 mm
08:54 17.2 °C 12.1 °C 1016.8 hPa SSE 6.4 km/h 16.1 km/h 72% 0 mm
08:59 17.2 °C 12.1 °C 1016.8 hPa SE 6.4 km/h 14.5 km/h 72% 0 mm
09:04 17.3 °C 12.2 °C 1016.5 hPa SSE 4.8 km/h 16.1 km/h 72% 0 mm
09:09 17.3 °C 12.2 °C 1016.8 hPa SSE 9.7 km/h 14.5 km/h 72% 0 mm
09:14 17.3 °C 12.2 °C 1016.8 hPa SSE 6.4 km/h 14.5 km/h 72% 0 mm
09:19 17.3 °C 12.2 °C 1016.5 hPa SSE 6.4 km/h 16.1 km/h 72% 0 mm
09:24 17.4 °C 12.1 °C 1016.5 hPa SSE 6.4 km/h 16.1 km/h 71% 0 mm
09:29 17.4 °C 12.1 °C 1016.5 hPa SSE 4.8 km/h 11.3 km/h 71% 0 mm
09:34 17.5 °C 12.2 °C 1016.5 hPa SSE 3.2 km/h 11.3 km/h 71% 0 mm
09:39 17.6 °C 12.2 °C 1016.5 hPa South 6.4 km/h 12.9 km/h 71% 0 mm
09:44 17.8 °C 12.4 °C 1016.5 hPa South 4.8 km/h 12.9 km/h 71% 0 mm
09:49 17.9 °C 12.4 °C 1016.1 hPa SSE 4.8 km/h 12.9 km/h 70% 0 mm
09:54 18.1 °C 12.5 °C 1016.5 hPa SSE 4.8 km/h 12.9 km/h 70% 0 mm
09:59 18.2 °C 12.4 °C 1016.1 hPa South 6.4 km/h 12.9 km/h 69% 0 mm
10:04 18.4 °C 12.9 °C 1016.1 hPa SSE 8 km/h 8 km/h 70% 0 mm
10:14 18.9 °C 13.1 °C 1016.1 hPa SSE 6.4 km/h 11.3 km/h 69% 0 mm
10:19 19.2 °C 12.9 °C 1016.1 hPa SSE 4.8 km/h 12.9 km/h 67% 0 mm
10:24 19.4 °C 13.1 °C 1015.8 hPa SSE 6.4 km/h 14.5 km/h 67% 0 mm
10:29 19.5 °C 13 °C 1015.8 hPa SSE 4.8 km/h 14.5 km/h 66% 0 mm
10:34 19.4 °C 12.9 °C 1015.8 hPa SSE 6.4 km/h 16.1 km/h 66% 0 mm
10:39 19.3 °C 12.8 °C 1015.8 hPa SSE 6.4 km/h 16.1 km/h 66% 0 mm
10:44 19.4 °C 12.9 °C 1015.8 hPa SSE 6.4 km/h 12.9 km/h 66% 0 mm
10:49 19.9 °C 13.4 °C 1015.5 hPa SSE 4.8 km/h 8 km/h 66% 0 mm
10:54 20.3 °C 13.2 °C 1015.5 hPa South 4.8 km/h 11.3 km/h 64% 0 mm
10:59 20.4 °C 13.3 °C 1015.1 hPa SSE 4.8 km/h 11.3 km/h 64% 0 mm
11:04 20.7 °C 13.2 °C 1015.1 hPa SSE 1.6 km/h 11.3 km/h 62% 0 mm
11:09 20.8 °C 13 °C 1015.1 hPa South 4.8 km/h 14.5 km/h 61% 0 mm
11:14 20.7 °C 13.2 °C 1014.8 hPa SE 1.6 km/h 14.5 km/h 62% 0 mm
11:19 20.8 °C 13.2 °C 1014.8 hPa South 8 km/h 8 km/h 62% 0 mm
11:24 20.8 °C 13.1 °C 1015.1 hPa SSW 6.4 km/h 14.5 km/h 61% 0 mm
11:29 20.8 °C 13.3 °C 1014.8 hPa SSE 4.8 km/h 14.5 km/h 62% 0 mm
11:34 20.8 °C 13.2 °C 1014.8 hPa SSE 6.4 km/h 14.5 km/h 62% 0 mm
11:39 20.8 °C 13.2 °C 1014.8 hPa SSE 6.4 km/h 14.5 km/h 62% 0 mm
11:44 20.8 °C 13.3 °C 1014.8 hPa SSE 8 km/h 12.9 km/h 62% 0 mm
11:49 20.8 °C 13.1 °C 1014.8 hPa SSE 8 km/h 16.1 km/h 61% 0 mm
11:54 20.8 °C 13 °C 1014.8 hPa SSE 8 km/h 16.1 km/h 61% 0 mm
11:59 20.7 °C 12.9 °C 1014.8 hPa SSE 6.4 km/h 12.9 km/h 61% 0 mm
12:04 20.7 °C 13.1 °C 1014.4 hPa Calm   12.9 km/h 62% 0 mm
12:09 20.7 °C 13.2 °C 1014.4 hPa South 6.4 km/h 12.9 km/h 62% 0 mm
12:14 20.8 °C 13 °C 1014.8 hPa South 6.4 km/h 12.9 km/h 61% 0 mm
12:19 20.7 °C 13.2 °C 1014.4 hPa SSE 3.2 km/h 14.5 km/h 62% 0 mm
12:24 20.8 °C 13.1 °C 1014.4 hPa SSE 6.4 km/h 14.5 km/h 61% 0 mm
12:29 21.1 °C 13.5 °C 1014.4 hPa SSE 11.3 km/h 12.9 km/h 62% 0 mm
12:34 21.1 °C 13.2 °C 1014.4 hPa South 6.4 km/h 12.9 km/h 61% 0 mm
12:39 21.1 °C 13.6 °C 1014.4 hPa SSE 6.4 km/h 14.5 km/h 62% 0 mm
12:44 21.3 °C 13.8 °C 1014.4 hPa South 4.8 km/h 14.5 km/h 62% 0 mm
12:49 21.3 °C 13.7 °C 1014.4 hPa South 4.8 km/h 16.1 km/h 62% 0 mm
12:54 21.1 °C 13.6 °C 1014.4 hPa South 6.4 km/h 16.1 km/h 62% 0 mm
12:59 21.1 °C 13.6 °C 1014.1 hPa SW 9.7 km/h 12.9 km/h 62% 0 mm
13:04 21.1 °C 14.1 °C 1014.1 hPa Calm   14.5 km/h 64% 0 mm
13:09 21 °C 13.9 °C 1014.1 hPa SSE 1.6 km/h 17.7 km/h 64% 0 mm
13:14 20.9 °C 13.9 °C 1013.8 hPa South 6.4 km/h 12.9 km/h 64% 0 mm
13:19 20.8 °C 13.8 °C 1013.8 hPa South 3.2 km/h 11.3 km/h 64% 0 mm
13:24 20.9 °C 13.8 °C 1013.8 hPa South 4.8 km/h 12.9 km/h 64% 0 mm
13:29 20.9 °C 14.1 °C 1013.4 hPa Calm   16.1 km/h 65% 0 mm
13:34 21.2 °C 14.4 °C 1013.4 hPa SSE 3.2 km/h 12.9 km/h 65% 0 mm
13:39 21.2 °C 14.1 °C 1013.1 hPa SSW 4.8 km/h 16.1 km/h 64% 0 mm
13:44 21.2 °C 14.1 °C 1013.1 hPa SSE 9.7 km/h 17.7 km/h 64% 0 mm
13:49 21.2 °C 14.3 °C 1012.8 hPa SSE 9.7 km/h 19.3 km/h 65% 0 mm
13:54 21.2 °C 14.6 °C 1012.8 hPa SSE 8 km/h 19.3 km/h 66% 0 mm
13:59 21.4 °C 14.6 °C 1012.4 hPa SSE 8 km/h 16.1 km/h 65% 0 mm
14:04 21.6 °C 14.7 °C 1012.4 hPa ESE 12.9 km/h 17.7 km/h 65% 0 mm
14:09 21.6 °C 14.7 °C 1012.4 hPa SE 4.8 km/h 25.7 km/h 65% 0 mm
14:14 21.7 °C 14.8 °C 1012.1 hPa SSE 11.3 km/h 25.7 km/h 65% 0 mm
14:19 21.6 °C 14.7 °C 1012.1 hPa South 9.7 km/h 16.1 km/h 65% 0 mm
14:24 21.3 °C 14.7 °C 1011.7 hPa SE 4.8 km/h 20.9 km/h 66% 0 mm
14:29 21.3 °C 14.7 °C 1011.7 hPa South 11.3 km/h 20.9 km/h 66% 0 mm
14:34 21.2 °C 14.6 °C 1011.4 hPa SE 1.6 km/h 17.7 km/h 66% 0 mm
14:39 21.2 °C 14.8 °C 1011.1 hPa South 6.4 km/h 20.9 km/h 67% 0 mm
14:44 21.1 °C 14.5 °C 1011.1 hPa SE 12.9 km/h 19.3 km/h 66% 0 mm
14:49 20.9 °C 14.6 °C 1011.1 hPa SSE 8 km/h 19.3 km/h 67% 0 mm
14:54 20.7 °C 14.6 °C 1011.1 hPa SSE 9.7 km/h 20.9 km/h 68% 0 mm
14:59 20.3 °C 14.9 °C 1010.7 hPa SSE 8 km/h 20.9 km/h 71% 0 mm
15:04 20.2 °C 14.7 °C 1011.1 hPa SE 8 km/h 22.5 km/h 71% 0 mm
15:09 19.9 °C 14.7 °C 1011.1 hPa SSE 8 km/h 25.7 km/h 72% 0 mm
15:14 19.6 °C 14.6 °C 1010.7 hPa SSE 8 km/h 25.7 km/h 73% 0 mm
15:19 19.4 °C 14.6 °C 1010.4 hPa South 4.8 km/h 22.5 km/h 74% 0 mm
15:24 19.4 °C 14.5 °C 1010.4 hPa SSE 3.2 km/h 17.7 km/h 73% 0 mm
15:29 19.4 °C 14.3 °C 1010.4 hPa South 6.4 km/h 16.1 km/h 72% 0 mm
15:34 19.4 °C 14.4 °C 1010 hPa SE 6.4 km/h 14.5 km/h 73% 0 mm
15:39 19.4 °C 14.3 °C 1010 hPa ENE 12.9 km/h 16.1 km/h 72% 0 mm
15:44 19.6 °C 14.2 °C 1010 hPa SE 8 km/h 16.1 km/h 71% 0 mm
15:49 19.6 °C 14.2 °C 1009.7 hPa SSE 12.9 km/h 19.3 km/h 71% 0 mm
15:54 19.7 °C 14.1 °C 1009.7 hPa SE 8 km/h 19.3 km/h 70% 0 mm
15:59 19.6 °C 14 °C 1009.7 hPa SE 8 km/h 16.1 km/h 70% 0 mm
16:04 19.6 °C 14 °C 1009.4 hPa SE 6.4 km/h 14.5 km/h 70% 0 mm
16:09 19.7 °C 14.1 °C 1009.4 hPa SE 4.8 km/h 12.9 km/h 70% 0 mm
16:14 19.6 °C 14 °C 1009.4 hPa SE 3.2 km/h 12.9 km/h 70% 0 mm
16:19 19.6 °C 14 °C 1009.4 hPa SE 4.8 km/h 12.9 km/h 70% 0 mm
16:24 19.6 °C 13.8 °C 1009 hPa ESE 11.3 km/h 12.9 km/h 69% 0 mm
16:29 19.7 °C 13.8 °C 1009 hPa SE 4.8 km/h 12.9 km/h 69% 0 mm
16:34 19.6 °C 13.8 °C 1009 hPa SE 4.8 km/h 14.5 km/h 69% 0 mm
16:39 19.6 °C 13.7 °C 1009 hPa SE 8 km/h 14.5 km/h 69% 0 mm
16:44 19.6 °C 13.7 °C 1009 hPa SE 4.8 km/h 19.3 km/h 69% 0 mm
16:49 19.6 °C 13.9 °C 1009 hPa South 4.8 km/h 6.4 km/h 70% 0 mm
16:54 19.6 °C 13.6 °C 1009 hPa SSE 4.8 km/h 11.3 km/h 68% 0 mm
16:59 19.7 °C 13.7 °C 1009 hPa SE 3.2 km/h 11.3 km/h 68% 0 mm
17:04 19.7 °C 13.7 °C 1009.4 hPa SSE 3.2 km/h 11.3 km/h 68% 0 mm
17:09 19.8 °C 13.2 °C 1009 hPa SSE 3.2 km/h 11.3 km/h 66% 0 mm
17:14 19.8 °C 13.2 °C 1009 hPa SSE 4.8 km/h 11.3 km/h 66% 0 mm
17:19 19.8 °C 13.2 °C 1009.4 hPa South 9.7 km/h 16.1 km/h 66% 0 mm
17:24 19.8 °C 13.3 °C 1009 hPa SSE 4.8 km/h 16.1 km/h 66% 0 mm
17:29 19.9 °C 13.1 °C 1009 hPa SSE 6.4 km/h 14.5 km/h 65% 0 mm
17:34 19.9 °C 13.3 °C 1008.7 hPa SSE 6.4 km/h 17.7 km/h 66% 0 mm
17:39 19.8 °C 13.4 °C 1008.7 hPa SSE 6.4 km/h 17.7 km/h 67% 0.25 mm
17:44 19.5 °C 13.7 °C 1008.7 hPa SE 6.4 km/h 12.9 km/h 69% 0.25 mm
17:49 19.3 °C 13.4 °C 1008.7 hPa SSE 4.8 km/h 17.7 km/h 69% 0.25 mm
17:59 19.1 °C 13.7 °C 1008.4 hPa Calm   14.5 km/h 71% 0.25 mm
18:04 18.9 °C 13.5 °C 1008.4 hPa SE 4.8 km/h 9.7 km/h 71% 0.25 mm
18:09 18.9 °C 13.3 °C 1008 hPa SSE 4.8 km/h 16.1 km/h 70% 0.25 mm
18:14 19 °C 13.2 °C 1008 hPa SSE 6.4 km/h 16.1 km/h 69% 0.25 mm
18:19 19.1 °C 13.3 °C 1007.7 hPa SE 6.4 km/h 14.5 km/h 69% 0.25 mm
18:24 19.1 °C 13.3 °C 1007.7 hPa SSE 4.8 km/h 12.9 km/h 69% 0.25 mm
18:29 19.1 °C 13.1 °C 1007.3 hPa SSE 4.8 km/h 20.9 km/h 68% 0.25 mm
18:34 19.2 °C 12.9 °C 1007.3 hPa SE 6.4 km/h 20.9 km/h 67% 0.25 mm
18:39 19.3 °C 12.8 °C 1007 hPa SE 8 km/h 20.9 km/h 66% 0 mm
18:44 19.4 °C 12.9 °C 1007 hPa SE 8 km/h 20.9 km/h 66% 0 mm
18:49 19.4 °C 12.9 °C 1007 hPa SE 8 km/h 20.9 km/h 66% 0 mm
18:54 19.4 °C 12.9 °C 1006.7 hPa SE 8 km/h 22.5 km/h 66% 0 mm
18:59 19.5 °C 13 °C 1006.7 hPa SE 8 km/h 20.9 km/h 66% 0 mm
19:04 19.6 °C 12.8 °C 1006.7 hPa SSE 9.7 km/h 20.9 km/h 65% 0 mm
19:09 19.6 °C 12.8 °C 1006.3 hPa SE 3.2 km/h 17.7 km/h 65% 0 mm
19:14 19.6 °C 12.8 °C 1006.3 hPa SE 8 km/h 17.7 km/h 65% 0 mm
19:19 19.6 °C 12.8 °C 1006 hPa SSE 3.2 km/h 17.7 km/h 65% 0 mm
19:24 19.5 °C 13 °C 1005.6 hPa SE 20.9 km/h 20.9 km/h 66% 0 mm
19:29 19.6 °C 12.8 °C 1005.3 hPa East 4.8 km/h 22.5 km/h 65% 0 mm
19:34 19.6 °C 12.8 °C 1005.3 hPa SE 8 km/h 16.1 km/h 65% 0 mm
19:39 19.6 °C 12.8 °C 1005.3 hPa East 12.9 km/h 16.1 km/h 65% 0 mm
19:44 19.7 °C 13.1 °C 1005.6 hPa SSE 12.9 km/h 24.1 km/h 66% 0 mm
19:49 19.7 °C 13.2 °C 1005.6 hPa SSE 9.7 km/h 24.1 km/h 66% 0 mm
19:54 19.8 °C 13.2 °C 1005.3 hPa SSE 8 km/h 19.3 km/h 66% 0 mm
19:59 19.8 °C 13.2 °C 1005 hPa SSE 9.7 km/h 22.5 km/h 66% 0 mm
20:04 19.8 °C 13.2 °C 1005 hPa SSE 11.3 km/h 25.7 km/h 66% 0 mm
20:09 19.8 °C 13.2 °C 1004.6 hPa SSE 6.4 km/h 17.7 km/h 66% 0 mm
20:14 19.8 °C 13.2 °C 1004.6 hPa SE 6.4 km/h 19.3 km/h 66% 0 mm
20:19 19.8 °C 13.4 °C 1004.3 hPa WSW 6.4 km/h 22.5 km/h 67% 0 mm
20:24 19.7 °C 13.4 °C 1004.3 hPa SSE 8 km/h 22.5 km/h 67% 0 mm
20:29 19.7 °C 13.4 °C 1004.3 hPa SSE 11.3 km/h 25.7 km/h 67% 0 mm
20:34 19.8 °C 13.5 °C 1004.3 hPa SE 8 km/h 24.1 km/h 67% 0 mm
20:39 19.8 °C 13.5 °C 1003.9 hPa SSE 16.1 km/h 25.7 km/h 67% 0 mm
20:44 19.8 °C 13.5 °C 1003.9 hPa SSW 9.7 km/h 30.6 km/h 67% 0 mm
20:49 19.9 °C 13.3 °C 1003.9 hPa SSE 16.1 km/h 27.4 km/h 66% 0 mm
20:54 19.9 °C 13.3 °C 1003.9 hPa SSE 12.9 km/h 30.6 km/h 66% 0 mm
20:59 19.9 °C 13.4 °C 1004.3 hPa SSE 11.3 km/h 32.2 km/h 66% 0 mm
21:04 20 °C 13.4 °C 1004.3 hPa SSE 11.3 km/h 32.2 km/h 66% 0 mm
21:09 20.1 °C 13.3 °C 1004.6 hPa South 8 km/h 24.1 km/h 65% 0 mm
21:14 20.2 °C 13.4 °C 1004.6 hPa South 4.8 km/h 29 km/h 65% 0 mm
21:19 20.3 °C 13.3 °C 1004.6 hPa South 8 km/h 29 km/h 64% 0 mm
21:24 20.4 °C 13.3 °C 1004.6 hPa SSE 12.9 km/h 32.2 km/h 64% 0 mm
21:29 20.4 °C 13.2 °C 1004.6 hPa SSE 11.3 km/h 32.2 km/h 63% 0 mm
21:34 20.5 °C 13.2 °C 1004.6 hPa SSE 9.7 km/h 24.1 km/h 63% 0 mm
21:39 20.5 °C 13.2 °C 1004.3 hPa SSE 11.3 km/h 22.5 km/h 63% 0 mm
21:44 20.6 °C 13.3 °C 1004.6 hPa South 4.8 km/h 19.3 km/h 63% 0 mm
21:49 20.6 °C 13.3 °C 1004.3 hPa South 9.7 km/h 27.4 km/h 63% 0 mm
21:54 20.7 °C 13.1 °C 1004.3 hPa SSW 11.3 km/h 27.4 km/h 62% 0 mm
21:59 20.7 °C 13.2 °C 1004.3 hPa SSE 12.9 km/h 27.4 km/h 62% 0 mm
22:04 20.8 °C 13.2 °C 1003.9 hPa SSE 11.3 km/h 22.5 km/h 62% 0 mm
22:09 20.8 °C 13.2 °C 1003.6 hPa SSE 8 km/h 22.5 km/h 62% 0 mm
22:14 20.8 °C 13.3 °C 1003.6 hPa East 9.7 km/h 24.1 km/h 62% 0 mm
22:19 20.9 °C 13.4 °C 1003.6 hPa SSE 14.5 km/h 22.5 km/h 62% 0 mm
22:24 21.1 °C 13.5 °C 1003.6 hPa SW 11.3 km/h 22.5 km/h 62% 0 mm
22:29 21.1 °C 13.3 °C 1003.6 hPa SSE 11.3 km/h 22.5 km/h 61% 0 mm
22:34 21.1 °C 13.3 °C 1003.6 hPa SSE 11.3 km/h 22.5 km/h 61% 0 mm
22:39 21.1 °C 13.3 °C 1003.3 hPa SSW 4.8 km/h 29 km/h 61% 0 mm
22:44 21.2 °C 13.3 °C 1002.9 hPa SE 9.7 km/h 30.6 km/h 61% 0 mm
22:49 21.2 °C 13.3 °C 1002.9 hPa South 4.8 km/h 24.1 km/h 61% 0 mm
22:54 21.3 °C 13.4 °C 1002.9 hPa SSW 11.3 km/h 29 km/h 61% 0 mm
22:59 21.3 °C 13.4 °C 1002.9 hPa SSE 17.7 km/h 33.8 km/h 61% 0 mm
23:04 21.3 °C 13.4 °C 1003.3 hPa South 12.9 km/h 35.4 km/h 61% 0 mm
23:09 20.9 °C 13.4 °C 1003.9 hPa SSW 16.1 km/h 35.4 km/h 62% 0 mm
23:19 17.9 °C 13.2 °C 1003.9 hPa WSW 16.1 km/h 33.8 km/h 74% 0.25 mm
23:24 17.1 °C 13 °C 1004.3 hPa WSW 11.3 km/h 25.7 km/h 77% 0.25 mm
23:29 16.7 °C 13.2 °C 1003.9 hPa West 4.8 km/h 25.7 km/h 80% 0.25 mm
23:34 16.4 °C 13.1 °C 1003.9 hPa South 9.7 km/h 20.9 km/h 81% 0.51 mm
23:39 16.2 °C 13.1 °C 1003.6 hPa SW 9.7 km/h 20.9 km/h 82% 0.51 mm
23:44 15.9 °C 12.9 °C 1003.3 hPa SW 12.9 km/h 17.7 km/h 82% 0.51 mm
23:49 15.8 °C 12.9 °C 1003.3 hPa SW 1.6 km/h 14.5 km/h 83% 0.51 mm
23:59 15.7 °C 13 °C 1002.9 hPa South 4.8 km/h 9.7 km/h 84% 0.51 mm
Buffalo, New York, USA
Compliments of Weather Underground - 2.5 mb